Time;durP1;ratioP1;P1;durP2;ratioP2;P2;SDS_P1;SDS_P2;PMS_P1;PMS_P2;Temp;Humidity;BMP_temperature;BMP_pressure;BME280_temperature;BME280_humidity;BME280_pressure;Samples;Min_cycle;Max_cycle;Signal;HPM_P1;HPM_P2
2021/12/03 00:00:23;;;;;;;4.50;3.60;;;1.00;99.90;;;;;;4891516;29;20217;-65
2021/12/03 00:02:50;;;;;;;4.82;3.72;;;0.90;99.90;;;;;;4891224;29;20234;-66
2021/12/03 00:05:18;;;;;;;3.70;3.25;;;0.90;99.90;;;;;;4891270;29;20226;-66
2021/12/03 00:07:45;;;;;;;7.47;3.70;;;0.90;99.90;;;;;;4891703;29;20213;-65
2021/12/03 00:10:14;;;;;;;3.67;3.20;;;0.90;99.90;;;;;;4891615;29;20548;-66
2021/12/03 00:12:42;;;;;;;3.50;2.90;;;0.80;99.90;;;;;;4890520;29;20674;-66
2021/12/03 00:15:11;;;;;;;4.30;3.30;;;0.70;99.90;;;;;;4891524;29;20237;-66
2021/12/03 00:17:38;;;;;;;3.75;3.40;;;0.70;99.90;;;;;;4891241;29;20234;-66
2021/12/03 00:20:08;;;;;;;4.68;3.67;;;0.60;99.90;;;;;;4891360;29;20215;-66
2021/12/03 00:22:36;;;;;;;4.68;3.28;;;0.50;99.90;;;;;;4890551;29;20313;-66
2021/12/03 00:25:03;;;;;;;5.80;3.60;;;0.50;99.90;;;;;;4891560;29;20213;-66
2021/12/03 00:27:30;;;;;;;9.55;4.10;;;0.40;99.90;;;;;;4890868;29;20214;-66
2021/12/03 00:29:57;;;;;;;6.35;4.38;;;0.40;99.90;;;;;;4905078;29;20213;-66
2021/12/03 00:32:24;;;;;;;4.43;3.90;;;0.30;99.90;;;;;;4910810;29;20211;-66
2021/12/03 00:34:50;;;;;;;5.88;4.05;;;0.30;99.90;;;;;;4911251;29;20209;-66
2021/12/03 00:37:17;;;;;;;5.97;3.90;;;0.30;99.90;;;;;;4911438;29;20240;-66
2021/12/03 00:39:45;;;;;;;3.63;3.30;;;0.20;99.90;;;;;;4911099;29;20206;-66
2021/12/03 00:42:15;;;;;;;6.28;3.80;;;0.20;99.90;;;;;;4910962;29;20299;-65
2021/12/03 00:44:44;;;;;;;8.90;4.30;;;0.20;99.90;;;;;;4911333;29;20225;-66
2021/12/03 00:47:11;;;;;;;4.28;3.83;;;0.10;99.90;;;;;;4911412;29;20260;-66
2021/12/03 00:49:39;;;;;;;5.03;4.00;;;0.10;99.90;;;;;;4911390;29;20221;-66
2021/12/03 00:52:06;;;;;;;7.65;4.55;;;0.10;99.90;;;;;;4911011;29;20288;-66
2021/12/03 00:54:33;;;;;;;4.20;3.75;;;0.20;99.90;;;;;;4911101;29;20326;-66
2021/12/03 00:57:01;;;;;;;4.05;3.60;;;0.20;99.90;;;;;;4910861;29;20237;-66
2021/12/03 00:59:28;;;;;;;4.55;3.75;;;0.30;99.90;;;;;;4911270;29;20220;-66
2021/12/03 01:01:55;;;;;;;8.27;4.55;;;0.30;99.90;;;;;;4910798;29;20237;-66
2021/12/03 01:04:21;;;;;;;4.78;3.78;;;0.30;99.90;;;;;;4910796;29;20241;-66
2021/12/03 01:06:48;;;;;;;5.68;3.70;;;0.40;99.90;;;;;;4911226;29;20213;-66
2021/12/03 01:09:16;;;;;;;6.55;4.18;;;0.40;99.90;;;;;;4911050;29;20620;-66
2021/12/03 01:11:43;;;;;;;4.97;4.18;;;0.50;99.90;;;;;;4910840;29;20210;-66
2021/12/03 01:14:11;;;;;;;4.50;3.90;;;0.50;99.90;;;;;;4909867;29;20234;-66
2021/12/03 01:16:38;;;;;;;5.70;3.90;;;0.50;99.90;;;;;;4909585;29;20206;-65
2021/12/03 01:19:04;;;;;;;7.13;3.92;;;0.50;99.90;;;;;;4910035;29;20209;-66
2021/12/03 01:21:31;;;;;;;4.88;3.85;;;0.50;99.90;;;;;;4910142;29;20206;-65
2021/12/03 01:23:58;;;;;;;6.97;3.67;;;0.60;99.90;;;;;;4910442;29;20239;-65
2021/12/03 01:26:26;;;;;;;4.70;4.20;;;0.60;99.90;;;;;;4909758;29;20206;-66
2021/12/03 01:28:52;;;;;;;4.10;3.70;;;0.70;99.90;;;;;;4909963;29;20639;-67
2021/12/03 01:31:21;;;;;;;4.80;3.90;;;0.70;99.90;;;;;;4908984;29;20217;-66
2021/12/03 01:33:48;;;;;;;7.22;4.63;;;0.70;99.90;;;;;;4910140;29;20230;-67
2021/12/03 01:36:15;;;;;;;8.23;4.30;;;0.70;99.90;;;;;;4909426;29;20209;-67
2021/12/03 01:38:42;;;;;;;6.93;4.90;;;0.70;99.90;;;;;;4990649;23;20237;-67
2021/12/03 01:41:09;;;;;;;5.93;4.97;;;0.70;99.90;;;;;;4929250;29;20205;-67
2021/12/03 01:43:36;;;;;;;4.60;3.85;;;0.70;99.90;;;;;;4925649;29;20222;-67
2021/12/03 01:46:05;;;;;;;4.63;4.22;;;0.70;99.90;;;;;;4913792;29;20209;-66
2021/12/03 01:48:33;;;;;;;4.93;4.07;;;0.70;99.90;;;;;;4914212;29;20665;-68
2021/12/03 01:51:01;;;;;;;4.70;4.05;;;0.70;99.90;;;;;;4913471;29;20239;-67
2021/12/03 01:53:30;;;;;;;6.53;4.45;;;0.70;99.90;;;;;;4908602;29;20217;-67
2021/12/03 01:55:59;;;;;;;4.40;4.00;;;0.70;99.90;;;;;;4902705;29;20398;-67
2021/12/03 01:58:26;;;;;;;6.30;4.18;;;0.70;99.90;;;;;;4902920;29;20222;-67
2021/12/03 02:00:57;;;;;;;5.70;4.70;;;0.70;99.90;;;;;;4896818;29;20607;-67
2021/12/03 02:03:27;;;;;;;5.70;4.30;;;0.60;99.90;;;;;;4895173;29;20748;-67
2021/12/03 02:05:56;;;;;;;5.07;4.60;;;0.60;99.90;;;;;;4895150;29;20210;-67
2021/12/03 02:08:23;;;;;;;5.18;4.68;;;0.50;99.90;;;;;;4895373;29;20202;-68
2021/12/03 02:10:51;;;;;;;6.80;5.18;;;0.50;99.90;;;;;;4895043;29;20682;-67
2021/12/03 02:13:18;;;;;;;5.00;4.40;;;0.40;99.90;;;;;;4894938;29;20273;-67
2021/12/03 02:15:46;;;;;;;5.43;4.65;;;0.40;99.90;;;;;;4895260;29;20210;-67
2021/12/03 02:18:13;;;;;;;4.63;4.00;;;0.40;99.90;;;;;;4894857;29;20226;-67
2021/12/03 02:20:44;;;;;;;6.15;5.15;;;0.40;99.90;;;;;;4895161;29;20678;-67
2021/12/03 02:23:12;;;;;;;4.45;4.05;;;0.30;99.90;;;;;;4894647;29;20230;-68
2021/12/03 02:25:39;;;;;;;5.75;5.00;;;0.30;99.90;;;;;;4895298;29;20257;-67
2021/12/03 02:28:06;;;;;;;5.57;4.72;;;0.20;99.90;;;;;;4894870;29;20908;-67
2021/12/03 02:30:33;;;;;;;4.97;4.57;;;0.20;99.90;;;;;;4898942;29;20207;-67
2021/12/03 02:33:00;;;;;;;7.15;4.85;;;0.20;99.90;;;;;;4897813;29;20230;-67
2021/12/03 02:35:26;;;;;;;5.72;5.07;;;0.20;99.90;;;;;;4898809;29;20690;-67
2021/12/03 02:37:55;;;;;;;6.85;5.53;;;0.10;99.90;;;;;;4898297;29;20222;-67
2021/12/03 02:40:23;;;;;;;5.93;4.80;;;0.10;99.90;;;;;;4898532;29;20710;-67
2021/12/03 02:42:51;;;;;;;10.48;5.55;;;0.00;99.90;;;;;;4897780;29;20230;-67
2021/12/03 02:45:19;;;;;;;5.45;4.70;;;0.00;99.90;;;;;;4898286;29;20214;-67
2021/12/03 02:47:46;;;;;;;4.95;4.45;;;0.00;99.90;;;;;;4898318;29;20214;-67
2021/12/03 02:50:15;;;;;;;5.30;4.68;;;-0.10;99.90;;;;;;4898254;29;20214;-67
2021/12/03 02:52:45;;;;;;;5.95;4.25;;;-0.10;99.90;;;;;;4897785;29;20211;-67
2021/12/03 02:55:14;;;;;;;7.32;4.90;;;-0.10;99.90;;;;;;4898095;29;20217;-68
2021/12/03 02:57:41;;;;;;;5.30;4.80;;;-0.10;99.90;;;;;;4898285;29;20229;-67
2021/12/03 03:00:11;;;;;;;7.88;5.20;;;-0.10;99.90;;;;;;4897849;29;20211;-67
2021/12/03 03:02:39;;;;;;;7.32;4.97;;;-0.10;99.90;;;;;;4897642;29;20214;-67
2021/12/03 03:05:06;;;;;;;6.45;5.05;;;-0.10;99.90;;;;;;4898286;29;20206;-67
2021/12/03 03:07:32;;;;;;;6.53;4.72;;;-0.10;99.90;;;;;;4898154;29;20585;-68
2021/12/03 03:09:59;;;;;;;7.82;5.22;;;0.00;99.90;;;;;;4898132;29;20207;-67
2021/12/03 03:12:27;;;;;;;5.50;4.72;;;0.00;99.90;;;;;;4897496;29;20214;-67
2021/12/03 03:14:56;;;;;;;6.32;5.45;;;0.00;99.90;;;;;;4898004;29;20210;-68
2021/12/03 03:17:23;;;;;;;8.95;5.72;;;-0.10;99.90;;;;;;4897725;29;20229;-67
2021/12/03 03:19:50;;;;;;;7.78;6.07;;;0.00;99.90;;;;;;4897999;29;20207;-67
2021/12/03 03:22:18;;;;;;;5.45;4.90;;;0.00;99.90;;;;;;4897359;29;20213;-67
2021/12/03 03:24:45;;;;;;;7.18;5.20;;;0.00;99.90;;;;;;4897871;29;20729;-68
2021/12/03 03:27:12;;;;;;;6.90;5.20;;;0.00;99.90;;;;;;4897683;29;20632;-67
2021/12/03 03:29:42;;;;;;;7.32;5.72;;;0.00;99.90;;;;;;4897980;29;20214;-68
2021/12/03 03:32:10;;;;;;;9.23;5.28;;;0.00;99.90;;;;;;4897081;29;20269;-67
2021/12/03 03:34:36;;;;;;;8.65;5.90;;;0.00;99.90;;;;;;4897647;29;20235;-67
2021/12/03 03:37:04;;;;;;;5.68;5.07;;;0.00;99.90;;;;;;4897644;29;20578;-67
2021/12/03 03:39:31;;;;;;;8.63;5.85;;;0.10;99.90;;;;;;4897111;29;20230;-67
2021/12/03 03:41:58;;;;;;;6.68;5.43;;;0.10;99.90;;;;;;4897045;29;20206;-67
2021/12/03 03:44:24;;;;;;;7.88;5.82;;;0.10;99.90;;;;;;4897423;29;20233;-67
2021/12/03 03:46:54;;;;;;;8.02;5.60;;;0.10;99.90;;;;;;4897393;29;20249;-67
2021/12/03 03:49:22;;;;;;;6.47;5.32;;;0.10;99.90;;;;;;4897651;29;20211;-67
2021/12/03 03:51:49;;;;;;;7.95;5.28;;;0.20;99.90;;;;;;4897215;29;20678;-67
2021/12/03 03:54:16;;;;;;;7.03;5.63;;;0.20;99.90;;;;;;4897503;29;20584;-67
2021/12/03 03:56:44;;;;;;;6.20;5.50;;;0.20;99.90;;;;;;4897825;29;20234;-67
2021/12/03 03:59:11;;;;;;;4.80;4.40;;;0.20;99.90;;;;;;4897434;29;20229;-67
2021/12/03 04:01:38;;;;;;;7.82;6.00;;;0.20;99.90;;;;;;4897011;29;20210;-67
2021/12/03 04:04:06;;;;;;;6.05;5.45;;;0.20;99.90;;;;;;4897226;29;20240;-67
2021/12/03 04:06:32;;;;;;;10.65;7.55;;;0.20;99.90;;;;;;4897438;29;20585;-68
2021/12/03 04:08:59;;;;;;;7.45;5.50;;;0.30;99.90;;;;;;4897309;29;20682;-67
2021/12/03 04:11:26;;;;;;;7.15;5.93;;;0.30;99.90;;;;;;4896755;29;20274;-67
2021/12/03 04:13:53;;;;;;;6.80;5.70;;;0.30;99.90;;;;;;4896983;29;20230;-67
2021/12/03 04:16:20;;;;;;;8.27;6.43;;;0.30;99.90;;;;;;4897074;29;20578;-68
2021/12/03 04:18:47;;;;;;;8.00;5.70;;;0.30;99.90;;;;;;4897095;29;20985;-67
2021/12/03 04:21:15;;;;;;;10.38;5.75;;;0.40;99.90;;;;;;4896497;29;20722;-67
2021/12/03 04:23:42;;;;;;;8.82;6.45;;;0.40;99.90;;;;;;4896935;29;20235;-67
2021/12/03 04:26:09;;;;;;;8.73;6.82;;;0.30;99.90;;;;;;4897217;29;20214;-67
2021/12/03 04:28:36;;;;;;;8.38;6.10;;;0.40;99.90;;;;;;4896963;29;20213;-67
2021/12/03 04:31:03;;;;;;;12.55;7.15;;;0.30;99.90;;;;;;4896228;29;20223;-67
2021/12/03 04:33:30;;;;;;;8.70;6.45;;;0.40;99.90;;;;;;4896460;29;20725;-67
2021/12/03 04:35:56;;;;;;;11.05;7.18;;;0.40;99.90;;;;;;4896568;29;20631;-67
2021/12/03 04:38:24;;;;;;;7.30;6.60;;;0.40;99.90;;;;;;4896374;29;20230;-67
2021/12/03 04:40:51;;;;;;;7.28;6.18;;;0.40;99.90;;;;;;4896086;29;20632;-67
2021/12/03 04:43:18;;;;;;;8.63;6.60;;;0.40;99.90;;;;;;4896320;29;20226;-67
2021/12/03 04:45:46;;;;;;;7.55;6.15;;;0.40;99.90;;;;;;4896318;29;20217;-67
2021/12/03 04:48:13;;;;;;;7.45;6.18;;;0.40;99.90;;;;;;4896171;29;20710;-67
2021/12/03 04:50:42;;;;;;;7.47;6.70;;;0.40;99.90;;;;;;4896284;29;20213;-67
2021/12/03 04:53:10;;;;;;;8.77;6.78;;;0.50;99.90;;;;;;4895205;29;20241;-68
2021/12/03 04:55:38;;;;;;;7.65;6.85;;;0.50;99.90;;;;;;4896189;29;20218;-67
2021/12/03 04:58:06;;;;;;;8.02;6.60;;;0.50;99.90;;;;;;4896007;29;20237;-67
2021/12/03 05:00:38;;;;;;;10.55;7.13;;;0.40;99.90;;;;;;4908196;29;20205;-67
2021/12/03 05:03:06;;;;;;;7.53;6.63;;;0.50;99.90;;;;;;4915481;29;20244;-66
2021/12/03 05:05:34;;;;;;;8.02;5.95;;;0.40;99.90;;;;;;4917045;29;20252;-69
2021/12/03 05:08:04;;;;;;;8.88;6.65;;;0.40;99.90;;;;;;4914377;29;20689;-67
2021/12/03 05:10:33;;;;;;;8.20;6.07;;;0.40;99.90;;;;;;4914207;29;20233;-66
2021/12/03 05:13:04;;;;;;;10.57;6.60;;;0.40;99.90;;;;;;4913703;29;20229;-67
2021/12/03 05:15:31;;;;;;;8.52;6.57;;;0.40;99.90;;;;;;4914432;29;20580;-67
2021/12/03 05:17:57;;;;;;;8.90;7.30;;;0.50;99.90;;;;;;4913653;29;20206;-67
2021/12/03 05:20:24;;;;;;;7.32;6.63;;;0.50;99.90;;;;;;4914513;29;20656;-69
2021/12/03 05:22:53;;;;;;;7.40;6.20;;;0.50;99.90;;;;;;4911753;29;20229;-66
2021/12/03 05:25:19;;;;;;;7.18;6.10;;;0.50;99.90;;;;;;4914537;29;20206;-66
2021/12/03 05:27:47;;;;;;;6.97;6.00;;;0.50;99.90;;;;;;4914076;29;20549;-67
2021/12/03 05:30:15;;;;;;;7.97;6.18;;;0.50;99.90;;;;;;4914101;29;20668;-67
2021/12/03 05:32:41;;;;;;;8.13;6.47;;;0.50;99.90;;;;;;4913631;29;20620;-67
2021/12/03 05:35:10;;;;;;;7.40;6.00;;;0.40;99.90;;;;;;4913921;29;20206;-67
2021/12/03 05:37:37;;;;;;;10.02;5.95;;;0.50;99.90;;;;;;4914286;29;20636;-67
2021/12/03 05:40:06;;;;;;;11.50;6.88;;;0.50;99.90;;;;;;4913439;29;20233;-67
2021/12/03 05:42:33;;;;;;;7.53;6.28;;;0.50;99.90;;;;;;4913629;29;20213;-67
2021/12/03 05:45:00;;;;;;;9.90;7.38;;;0.40;99.90;;;;;;4913569;29;20578;-67
2021/12/03 05:47:28;;;;;;;7.38;6.55;;;0.40;99.90;;;;;;4914379;29;20598;-67
2021/12/03 05:49:54;;;;;;;10.02;6.57;;;0.40;99.90;;;;;;4914316;29;20205;-67
2021/12/03 05:52:21;;;;;;;10.40;6.50;;;0.30;99.90;;;;;;4906419;29;20592;-66
2021/12/03 05:54:48;;;;;;;8.15;6.72;;;0.40;99.90;;;;;;4903063;29;20223;-66
2021/12/03 05:57:15;;;;;;;7.18;6.03;;;0.40;99.90;;;;;;4903754;29;20201;-67
2021/12/03 05:59:41;;;;;;;7.05;6.32;;;0.40;99.90;;;;;;4904524;29;20222;-67
2021/12/03 06:02:08;;;;;;;8.48;5.90;;;0.40;99.90;;;;;;4903397;29;20683;-66
2021/12/03 06:04:36;;;;;;;9.52;6.95;;;0.40;99.90;;;;;;4908303;29;20218;-67
2021/12/03 06:07:04;;;;;;;8.38;6.10;;;0.40;99.90;;;;;;4906335;29;20203;-67
2021/12/03 06:09:30;;;;;;;8.25;6.45;;;0.30;99.90;;;;;;4908213;29;20198;-67
2021/12/03 06:11:57;;;;;;;7.32;6.40;;;0.40;99.90;;;;;;4907290;29;20589;-67
2021/12/03 06:14:24;;;;;;;7.50;6.70;;;0.30;99.90;;;;;;4906592;29;20269;-67
2021/12/03 06:16:51;;;;;;;8.25;6.13;;;0.30;99.90;;;;;;4907852;29;20209;-67
2021/12/03 06:19:17;;;;;;;10.43;6.85;;;0.40;99.90;;;;;;4910537;29;20701;-67
2021/12/03 06:21:45;;;;;;;9.20;7.60;;;0.40;99.90;;;;;;4916961;29;20206;-70
2021/12/03 06:24:12;;;;;;;7.88;7.07;;;0.40;99.90;;;;;;4916777;29;20720;-67
2021/12/03 06:26:39;;;;;;;7.07;5.60;;;0.40;99.90;;;;;;4915689;29;20213;-67
2021/12/03 06:29:06;;;;;;;7.85;6.35;;;0.40;99.90;;;;;;4914314;29;20208;-67
2021/12/03 06:31:33;;;;;;;18.70;10.35;;;0.40;99.90;;;;;;4915803;29;20210;-68
2021/12/03 06:34:00;;;;;;;12.82;9.25;;;0.40;99.90;;;;;;4917033;29;20240;-67
2021/12/03 06:36:27;;;;;;;13.27;8.75;;;0.40;99.90;;;;;;4918264;29;20216;-68
2021/12/03 06:38:56;;;;;;;9.75;7.40;;;0.30;99.90;;;;;;4916498;29;20256;-67
2021/12/03 06:41:22;;;;;;;8.98;6.50;;;0.30;99.90;;;;;;4919500;29;20582;-67
2021/12/03 06:43:51;;;;;;;9.38;7.30;;;0.30;99.90;;;;;;4916763;29;20229;-67
2021/12/03 06:46:18;;;;;;;8.98;6.95;;;0.20;99.90;;;;;;4916758;29;20296;-67
2021/12/03 06:48:45;;;;;;;7.70;6.60;;;0.20;99.90;;;;;;4916876;29;20858;-67
2021/12/03 06:51:11;;;;;;;7.35;6.28;;;0.20;99.90;;;;;;4915815;29;20217;-67
2021/12/03 06:53:44;;;;;;;6.57;5.82;;;0.10;99.90;;;;;;4916742;29;20716;-68
2021/12/03 06:56:20;;;;;;;7.57;6.00;;;0.10;99.90;;;;;;4910834;29;20292;-67
2021/12/03 06:58:47;;;;;;;6.70;5.28;;;0.00;99.90;;;;;;4908112;29;20361;-67
2021/12/03 07:01:14;;;;;;;7.57;6.40;;;0.00;99.90;;;;;;4914641;29;20610;-67
2021/12/03 07:03:41;;;;;;;7.43;5.45;;;-0.10;99.90;;;;;;4905981;29;20226;-67
2021/12/03 07:06:08;;;;;;;8.50;5.82;;;-0.10;99.90;;;;;;4907484;29;20228;-67
2021/12/03 07:08:35;;;;;;;7.00;6.30;;;-0.20;99.90;;;;;;4906387;29;20577;-67
2021/12/03 07:11:02;;;;;;;8.20;6.57;;;-0.30;99.90;;;;;;4905142;29;20202;-68
2021/12/03 07:13:31;;;;;;;8.43;5.95;;;-0.30;99.90;;;;;;4907480;29;20214;-67
2021/12/03 07:15:58;;;;;;;9.50;6.43;;;-0.30;99.90;;;;;;4906128;29;20203;-67
2021/12/03 07:18:25;;;;;;;8.02;6.57;;;-0.40;99.90;;;;;;4910728;29;20242;-68
2021/12/03 07:20:52;;;;;;;9.02;6.78;;;-0.50;99.90;;;;;;4915848;29;20206;-67
2021/12/03 07:23:18;;;;;;;7.07;6.10;;;-0.50;99.90;;;;;;4916256;29;20234;-68
2021/12/03 07:25:45;;;;;;;6.75;6.05;;;-0.50;99.90;;;;;;4915753;29;20205;-68
2021/12/03 07:28:13;;;;;;;8.05;6.40;;;-0.50;99.90;;;;;;4915767;29;20345;-68
2021/12/03 07:30:41;;;;;;;7.00;5.90;;;-0.60;99.90;;;;;;4915976;29;20209;-67
2021/12/03 07:33:11;;;;;;;8.88;6.25;;;-0.50;99.90;;;;;;4915392;29;20238;-68
2021/12/03 07:35:38;;;;;;;10.85;7.70;;;-0.60;99.90;;;;;;4915813;29;20206;-67
2021/12/03 07:38:05;;;;;;;6.50;5.63;;;-0.60;99.90;;;;;;4915469;29;20224;-67
2021/12/03 07:40:32;;;;;;;8.10;7.00;;;-0.60;99.90;;;;;;4997125;23;20228;-68
2021/12/03 07:42:59;;;;;;;7.60;5.95;;;-0.50;99.90;;;;;;4934466;29;20217;-69
2021/12/03 07:45:25;;;;;;;9.05;7.25;;;-0.40;99.90;;;;;;4934784;29;20209;-68
2021/12/03 07:47:53;;;;;;;7.22;6.10;;;-0.30;99.90;;;;;;4934638;29;20393;-68
2021/12/03 07:50:21;;;;;;;7.47;6.20;;;-0.30;99.90;;;;;;4934865;29;20216;-67
2021/12/03 07:52:48;;;;;;;6.82;6.10;;;-0.20;99.90;;;;;;4933863;29;20233;-68
2021/12/03 07:55:15;;;;;;;7.03;5.22;;;-0.10;99.90;;;;;;4934738;29;20209;-68
2021/12/03 07:57:41;;;;;;;7.80;5.97;;;0.30;99.90;;;;;;4934313;29;20216;-68
2021/12/03 08:00:09;;;;;;;5.57;4.97;;;1.00;99.90;;;;;;4934798;29;20229;-68
2021/12/03 08:02:36;;;;;;;4.63;4.20;;;2.00;99.90;;;;;;4934089;29;20215;-67
2021/12/03 08:05:05;;;;;;;4.95;4.45;;;2.80;99.90;;;;;;4933909;29;20205;-68
2021/12/03 08:07:32;;;;;;;5.60;4.32;;;3.50;99.90;;;;;;4934170;29;20703;-67
2021/12/03 08:09:59;;;;;;;5.47;4.95;;;4.20;99.90;;;;;;4934312;29;20560;-68
2021/12/03 08:12:25;;;;;;;6.65;4.60;;;5.20;99.90;;;;;;4933708;29;20213;-68
2021/12/03 08:14:52;;;;;;;7.38;4.35;;;5.60;99.90;;;;;;4934295;29;20296;-68
2021/12/03 08:17:19;;;;;;;5.43;4.68;;;5.40;99.90;;;;;;4933642;29;20205;-68
2021/12/03 08:19:46;;;;;;;4.93;3.95;;;5.10;99.90;;;;;;4933951;29;20221;-67
2021/12/03 08:22:14;;;;;;;3.92;3.53;;;5.50;99.90;;;;;;4917815;29;20217;-67
2021/12/03 08:24:41;;;;;;;5.53;4.40;;;6.30;99.90;;;;;;4928456;29;20233;-68
2021/12/03 08:27:08;;;;;;;5.32;4.00;;;7.00;99.90;;;;;;4933526;29;20554;-66
2021/12/03 08:29:35;;;;;;;3.50;3.20;;;7.40;99.90;;;;;;4933345;29;20201;-66
2021/12/03 08:32:03;;;;;;;3.50;3.20;;;7.90;99.90;;;;;;4933060;29;20639;-66
2021/12/03 08:34:30;;;;;;;3.63;3.03;;;8.30;99.90;;;;;;4933724;29;20232;-67
2021/12/03 08:36:58;;;;;;;3.17;2.85;;;8.50;99.90;;;;;;4933377;29;20200;-66
2021/12/03 08:39:28;;;;;;;3.85;3.15;;;8.20;99.90;;;;;;4933054;29;20316;-67
2021/12/03 08:41:55;;;;;;;3.08;2.78;;;8.10;99.90;;;;;;4933892;29;20256;-66
2021/12/03 08:44:22;;;;;;;2.95;2.63;;;7.80;99.90;;;;;;4933051;29;20229;-66
2021/12/03 08:46:57;;;;;;;3.35;2.70;;;7.50;99.90;;;;;;4933532;29;20209;-67
2021/12/03 08:49:29;;;;;;;4.28;2.90;;;7.10;99.90;;;;;;4933578;29;20201;-66
2021/12/03 08:52:23;;;;;;;4.07;3.05;;;7.00;99.90;;;;;;4932228;29;20240;-67
2021/12/03 08:54:51;;;;;;;2.78;2.50;;;6.40;99.90;;;;;;4933277;29;20257;-66
2021/12/03 08:57:21;;;;;;;2.90;2.60;;;5.70;99.90;;;;;;4933399;29;20205;-66
2021/12/03 08:59:50;;;;;;;3.25;2.40;;;5.00;99.90;;;;;;4932884;29;20228;-67
2021/12/03 09:02:18;;;;;;;2.22;2.03;;;4.00;99.90;;;;;;4928775;29;20212;-66
2021/12/03 09:04:46;;;;;;;2.60;2.40;;;3.70;99.90;;;;;;4933231;29;20653;-67
2021/12/03 09:07:13;;;;;;;2.40;2.20;;;3.80;99.90;;;;;;4932897;29;20213;-67
2021/12/03 09:09:42;;;;;;;2.60;2.40;;;3.90;99.90;;;;;;4933132;29;20573;-67
2021/12/03 09:12:12;;;;;;;3.47;2.65;;;4.40;99.90;;;;;;4932975;29;20201;-67
2021/12/03 09:14:42;;;;;;;5.20;2.63;;;5.90;99.90;;;;;;4932274;29;20320;-67
2021/12/03 09:17:22;;;;;;;2.58;2.38;;;7.10;99.90;;;;;;4933568;28;20276;-67
2021/12/03 09:19:57;;;;;;;6.72;2.70;;;8.00;99.90;;;;;;4932450;29;20244;-67
2021/12/03 09:22:33;;;;;;;4.05;3.03;;;9.30;99.90;;;;;;4931396;29;20295;-68
2021/12/03 09:25:01;;;;;;;2.47;2.20;;;11.10;97.40;;;;;;4932646;29;20676;-67
2021/12/03 09:27:30;;;;;;;3.40;2.40;;;12.90;95.40;;;;;;4932673;29;20206;-66
2021/12/03 09:29:57;;;;;;;4.25;2.08;;;13.80;94.10;;;;;;4932773;29;20616;-66
2021/12/03 09:32:28;;;;;;;3.03;2.15;;;13.90;93.10;;;;;;4931682;29;20287;-69
2021/12/03 09:34:55;;;;;;;3.10;2.33;;;13.60;92.80;;;;;;4932280;29;20211;-69
2021/12/03 09:37:22;;;;;;;2.30;2.10;;;13.70;92.70;;;;;;4932066;29;20201;-69
2021/12/03 09:39:50;;;;;;;2.22;2.03;;;13.90;92.60;;;;;;4932379;29;20228;-69
2021/12/03 09:42:20;;;;;;;2.20;2.00;;;14.10;92.60;;;;;;4931246;29;20688;-69
2021/12/03 09:44:50;;;;;;;2.30;2.05;;;14.30;91.60;;;;;;4932563;29;20233;-69
2021/12/03 09:47:19;;;;;;;1.88;1.77;;;13.70;91.70;;;;;;4932690;29;20686;-68
2021/12/03 09:49:49;;;;;;;4.35;2.25;;;13.90;92.30;;;;;;4931588;29;20209;-69
2021/12/03 09:52:25;;;;;;;2.20;2.00;;;14.20;90.30;;;;;;4932102;29;20209;-69
2021/12/03 09:54:56;;;;;;;1.60;1.50;;;13.70;92.60;;;;;;4932996;29;20211;-68
2021/12/03 09:57:31;;;;;;;3.45;2.53;;;14.20;91.20;;;;;;4933278;29;20220;-67
2021/12/03 10:03:03;;;;;;;3.43;2.43;;;15.00;91.00;;;;;;4933597;29;21055;-68
2021/12/03 10:11:49;;;;;;;2.40;2.17;;;17.70;86.50;;;;;;4926929;29;21065;-67
2021/12/03 10:14:37;;;;;;;2.93;2.27;;;16.50;89.10;;;;;;4931474;29;20488;-68
2021/12/03 10:17:32;;;;;;;2.83;2.40;;;16.30;86.70;;;;;;4931624;29;20891;-68
2021/12/03 10:20:11;;;;;;;3.20;2.47;;;14.70;89.40;;;;;;4931538;29;20493;-68
2021/12/03 10:34:23;;;;;;;2.40;2.10;;;16.20;87.00;;;;;;5040520;28;20827;-67
2021/12/03 10:37:17;;;;;;;5.27;2.70;;;16.40;85.20;;;;;;5045967;28;21023;-67
2021/12/03 10:39:53;;;;;;;3.93;2.20;;;14.70;87.80;;;;;;5045796;28;20468;-67
2021/12/03 10:42:32;;;;;;;3.87;2.40;;;14.50;88.20;;;;;;5045807;28;20459;-67
2021/12/03 10:50:44;;;;;;;2.73;2.53;;;14.70;89.90;;;;;;5044956;28;20509;-67
2021/12/03 10:53:35;;;;;;;3.13;2.83;;;15.40;89.90;;;;;;5045453;28;20478;-67
2021/12/03 10:56:24;;;;;;;2.60;2.40;;;14.20;90.10;;;;;;5046111;28;20452;-67
2021/12/03 11:05:16;;;;;;;4.15;2.80;;;11.90;91.40;;;;;;5063865;28;20231;-67
2021/12/03 11:13:36;;;;;;;3.05;2.45;;;11.10;93.40;;;;;;5065490;28;20686;-67
2021/12/03 11:38:51;;;;;;;2.78;2.55;;;9.70;94.80;;;;;;5031713;28;20200;-66
2021/12/03 13:18:12;;;;;;;2.97;2.30;;;6.00;99.90;;;;;;5007572;28;20345;-67
2021/12/03 14:00:43;;;;;;;2.90;2.22;;;3.30;99.90;;;;;;5029232;28;20240;-71
2021/12/03 14:37:47;;;;;;;3.00;2.70;;;2.80;99.90;;;;;;5026731;28;20606;-71
2021/12/03 14:40:22;;;;;;;2.70;2.28;;;2.70;99.90;;;;;;5028448;28;20743;-71
2021/12/03 14:43:07;;;;;;;3.30;2.10;;;2.70;99.90;;;;;;5028080;28;20275;-70
2021/12/03 14:45:59;;;;;;;5.90;2.65;;;2.60;99.90;;;;;;5030035;28;20225;-71
2021/12/03 14:51:28;;;;;;;4.15;2.67;;;2.70;99.90;;;;;;5029446;28;20336;-71
2021/12/03 14:54:18;;;;;;;3.03;2.78;;;2.60;99.90;;;;;;5029388;28;20222;-70
2021/12/03 14:57:06;;;;;;;3.10;2.45;;;2.60;99.90;;;;;;5030055;28;20206;-70
2021/12/03 14:59:34;;;;;;;4.10;2.95;;;2.50;99.90;;;;;;5029993;28;20210;-71
2021/12/03 15:02:08;;;;;;;3.30;2.90;;;2.50;99.90;;;;;;5028689;28;20206;-70
2021/12/03 15:07:17;;;;;;;2.83;2.60;;;2.50;99.90;;;;;;5027368;28;20215;-69
2021/12/03 15:09:46;;;;;;;2.95;2.65;;;2.40;99.90;;;;;;5029734;28;20217;-70
2021/12/03 15:20:51;;;;;;;5.50;2.40;;;2.10;99.90;;;;;;5033822;28;20205;-71
2021/12/03 15:23:49;;;;;;;5.80;2.60;;;2.00;99.90;;;;;;5033198;28;20228;-70
2021/12/03 15:26:33;;;;;;;3.00;2.33;;;2.00;99.90;;;;;;5033068;28;20197;-71
2021/12/03 15:29:36;;;;;;;2.85;2.40;;;1.90;99.90;;;;;;5033288;28;20205;-71
2021/12/03 15:32:08;;;;;;;2.60;2.35;;;1.90;99.90;;;;;;5032586;28;20232;-72
2021/12/03 15:37:39;;;;;;;3.00;2.70;;;1.80;99.90;;;;;;5027844;28;20905;-70
2021/12/03 15:57:13;;;;;;;3.90;2.75;;;1.50;99.90;;;;;;5032543;28;20194;-70
2021/12/03 16:05:21;;;;;;;6.35;2.80;;;1.40;99.90;;;;;;5031329;28;20641;-71
2021/12/03 16:08:02;;;;;;;7.43;4.03;;;1.40;99.90;;;;;;5032389;28;20201;-70
2021/12/03 16:10:34;;;;;;;4.22;3.42;;;1.30;99.90;;;;;;5031605;28;20692;-70
2021/12/03 16:13:17;;;;;;;5.32;3.40;;;1.30;99.90;;;;;;5031029;28;20236;-71
2021/12/03 16:27:13;;;;;;;3.58;2.72;;;1.20;99.90;;;;;;4970930;28;20207;-70
2021/12/03 16:46:36;;;;;;;4.93;2.90;;;1.10;99.90;;;;;;4970588;28;20271;-71
2021/12/03 16:51:53;;;;;;;7.45;3.30;;;1.10;99.90;;;;;;5013678;28;20695;-70
2021/12/03 16:54:26;;;;;;;3.05;2.75;;;1.10;99.90;;;;;;5031497;28;20225;-71
2021/12/03 16:56:55;;;;;;;3.42;2.85;;;1.10;99.90;;;;;;5032141;28;20234;-71
2021/12/03 16:59:23;;;;;;;5.47;2.83;;;1.10;99.90;;;;;;5031946;28;20206;-71
2021/12/03 17:01:58;;;;;;;6.03;2.47;;;1.00;99.90;;;;;;5030525;28;20209;-71
2021/12/03 17:04:46;;;;;;;4.97;2.90;;;1.10;99.90;;;;;;5031022;28;20303;-71
2021/12/03 17:10:20;;;;;;;4.20;2.75;;;1.10;99.90;;;;;;5031253;28;20213;-71
2021/12/03 17:12:56;;;;;;;3.33;2.65;;;1.10;99.90;;;;;;5030264;28;20217;-70
2021/12/03 17:48:47;;;;;;;3.65;2.90;;;1.00;99.90;;;;;;4968767;28;20709;-71
2021/12/03 17:51:42;;;;;;;2.00;1.80;;;1.00;99.90;;;;;;5004721;28;20723;-70
2021/12/03 17:57:10;;;;;;;2.80;2.30;;;1.00;99.90;;;;;;5027376;28;20287;-69
2021/12/03 17:59:40;;;;;;;3.15;2.80;;;1.00;99.90;;;;;;5028553;28;20213;-67
2021/12/03 18:02:18;;;;;;;5.70;2.95;;;1.00;99.90;;;;;;5026873;28;20865;-69
2021/12/03 18:05:00;;;;;;;3.15;2.85;;;1.00;99.90;;;;;;5027628;28;21116;-68
2021/12/03 18:07:37;;;;;;;2.90;2.60;;;1.00;99.90;;;;;;5027312;28;20217;-68
2021/12/03 18:10:27;;;;;;;4.03;3.00;;;0.90;99.90;;;;;;5026856;28;20953;-69
2021/12/03 18:43:33;;;;;;;3.47;3.17;;;0.90;99.90;;;;;;5026151;28;20248;-70
2021/12/03 18:46:20;;;;;;;3.47;2.80;;;0.80;99.90;;;;;;5027439;28;21011;-70
2021/12/03 18:49:06;;;;;;;3.55;2.75;;;0.80;99.90;;;;;;5030498;28;20209;-70
2021/12/03 18:51:41;;;;;;;3.00;2.72;;;0.90;99.90;;;;;;5031271;28;20293;-70
2021/12/03 18:56:53;;;;;;;4.82;3.38;;;0.90;99.90;;;;;;5030319;28;20244;-70
2021/12/03 18:59:21;;;;;;;4.53;3.22;;;0.90;99.90;;;;;;5030892;28;20296;-69
2021/12/03 19:01:49;;;;;;;4.60;3.42;;;1.00;99.90;;;;;;5027922;28;20630;-70
2021/12/03 19:04:20;;;;;;;4.00;3.03;;;1.00;99.90;;;;;;5030481;28;20261;-70
2021/12/03 19:06:58;;;;;;;4.75;3.08;;;1.00;99.90;;;;;;5030130;28;20225;-70
2021/12/03 19:09:27;;;;;;;2.70;2.50;;;1.10;99.90;;;;;;5030476;28;20284;-70
2021/12/03 19:12:00;;;;;;;3.45;3.15;;;1.10;99.90;;;;;;5030379;28;20550;-71
2021/12/03 19:14:29;;;;;;;3.45;2.92;;;1.20;99.90;;;;;;5030144;28;20319;-72
2021/12/03 19:16:58;;;;;;;3.28;2.88;;;1.30;99.90;;;;;;5030378;28;20208;-72
2021/12/03 19:19:27;;;;;;;3.70;3.05;;;1.20;99.90;;;;;;5030927;28;20205;-69
2021/12/03 19:21:57;;;;;;;3.25;2.95;;;1.30;99.90;;;;;;5029439;28;20198;-71
2021/12/03 19:24:25;;;;;;;5.97;4.45;;;1.30;99.90;;;;;;5029844;28;20225;-70